sensor_id;sensor_type;location;lat;lon;timestamp;temperature;humidity
34406;DHT22;20658;45.630;8.886;2022-07-11T00:01:54;24.20;41.20
34406;DHT22;20658;45.630;8.886;2022-07-11T00:04:28;24.20;42.40
34406;DHT22;20658;45.630;8.886;2022-07-11T00:07:03;24.20;43.70
34406;DHT22;20658;45.630;8.886;2022-07-11T00:09:37;24.10;44.50
34406;DHT22;20658;45.630;8.886;2022-07-11T00:12:11;24.10;45.20
34406;DHT22;20658;45.630;8.886;2022-07-11T00:14:45;24.10;45.80
34406;DHT22;20658;45.630;8.886;2022-07-11T00:17:19;24.10;47.00
34406;DHT22;20658;45.630;8.886;2022-07-11T00:19:52;24.00;47.00
34406;DHT22;20658;45.630;8.886;2022-07-11T00:22:27;24.00;47.50
34406;DHT22;20658;45.630;8.886;2022-07-11T00:25:01;24.00;47.60
34406;DHT22;20658;45.630;8.886;2022-07-11T00:27:34;23.90;48.30
34406;DHT22;20658;45.630;8.886;2022-07-11T00:30:09;23.90;48.50
34406;DHT22;20658;45.630;8.886;2022-07-11T00:32:43;23.90;48.70
34406;DHT22;20658;45.630;8.886;2022-07-11T00:35:11;23.90;49.00
34406;DHT22;20658;45.630;8.886;2022-07-11T00:37:46;23.80;49.00
34406;DHT22;20658;45.630;8.886;2022-07-11T00:40:19;23.80;49.40
34406;DHT22;20658;45.630;8.886;2022-07-11T00:42:53;23.70;49.60
34406;DHT22;20658;45.630;8.886;2022-07-11T00:45:27;23.70;49.90
34406;DHT22;20658;45.630;8.886;2022-07-11T00:48:00;23.60;50.00
34406;DHT22;20658;45.630;8.886;2022-07-11T00:50:33;23.60;50.20
34406;DHT22;20658;45.630;8.886;2022-07-11T00:53:09;23.60;50.30
34406;DHT22;20658;45.630;8.886;2022-07-11T00:55:43;23.60;50.20
34406;DHT22;20658;45.630;8.886;2022-07-11T00:58:17;23.50;50.70
34406;DHT22;20658;45.630;8.886;2022-07-11T01:00:50;23.50;50.70
34406;DHT22;20658;45.630;8.886;2022-07-11T01:03:24;23.40;50.60
34406;DHT22;20658;45.630;8.886;2022-07-11T01:05:57;23.40;50.70
34406;DHT22;20658;45.630;8.886;2022-07-11T01:08:33;23.30;50.40
34406;DHT22;20658;45.630;8.886;2022-07-11T01:11:09;23.40;50.30
34406;DHT22;20658;45.630;8.886;2022-07-11T01:13:45;23.30;50.30
34406;DHT22;20658;45.630;8.886;2022-07-11T01:16:20;23.30;50.30
34406;DHT22;20658;45.630;8.886;2022-07-11T01:18:54;23.20;50.40
34406;DHT22;20658;45.630;8.886;2022-07-11T01:21:30;23.30;50.20
34406;DHT22;20658;45.630;8.886;2022-07-11T01:24:07;23.20;50.30
34406;DHT22;20658;45.630;8.886;2022-07-11T01:26:42;23.10;50.30
34406;DHT22;20658;45.630;8.886;2022-07-11T01:29:16;23.10;50.30
34406;DHT22;20658;45.630;8.886;2022-07-11T01:31:49;23.10;50.30
34406;DHT22;20658;45.630;8.886;2022-07-11T01:34:23;23.00;50.30
34406;DHT22;20658;45.630;8.886;2022-07-11T01:36:56;23.00;50.20
34406;DHT22;20658;45.630;8.886;2022-07-11T01:39:31;23.00;50.10
34406;DHT22;20658;45.630;8.886;2022-07-11T01:42:05;22.90;50.40
34406;DHT22;20658;45.630;8.886;2022-07-11T01:44:38;22.90;50.60
34406;DHT22;20658;45.630;8.886;2022-07-11T01:47:11;22.90;50.40
34406;DHT22;20658;45.630;8.886;2022-07-11T01:49:45;22.90;50.20
34406;DHT22;20658;45.630;8.886;2022-07-11T01:52:18;22.80;50.30
34406;DHT22;20658;45.630;8.886;2022-07-11T01:54:53;22.80;50.40
34406;DHT22;20658;45.630;8.886;2022-07-11T01:57:27;22.80;50.20
34406;DHT22;20658;45.630;8.886;2022-07-11T02:00:00;22.80;50.30
34406;DHT22;20658;45.630;8.886;2022-07-11T02:02:34;22.70;50.20
34406;DHT22;20658;45.630;8.886;2022-07-11T02:05:08;22.70;50.20
34406;DHT22;20658;45.630;8.886;2022-07-11T02:07:42;22.70;50.00
34406;DHT22;20658;45.630;8.886;2022-07-11T02:10:34;22.70;49.90
34406;DHT22;20658;45.630;8.886;2022-07-11T02:13:07;22.70;49.80
34406;DHT22;20658;45.630;8.886;2022-07-11T02:15:43;22.60;49.40
34406;DHT22;20658;45.630;8.886;2022-07-11T02:18:18;22.50;49.70
34406;DHT22;20658;45.630;8.886;2022-07-11T02:20:52;22.60;50.00
34406;DHT22;20658;45.630;8.886;2022-07-11T02:23:26;22.50;50.50
34406;DHT22;20658;45.630;8.886;2022-07-11T02:26:01;22.50;50.70
34406;DHT22;20658;45.630;8.886;2022-07-11T02:28:35;22.40;51.00
34406;DHT22;20658;45.630;8.886;2022-07-11T02:31:09;22.40;51.00
34406;DHT22;20658;45.630;8.886;2022-07-11T02:33:43;22.30;51.00
34406;DHT22;20658;45.630;8.886;2022-07-11T02:36:16;22.30;51.20
34406;DHT22;20658;45.630;8.886;2022-07-11T02:38:49;22.30;51.60
34406;DHT22;20658;45.630;8.886;2022-07-11T02:41:24;22.30;51.60
34406;DHT22;20658;45.630;8.886;2022-07-11T02:43:57;22.20;51.60
34406;DHT22;20658;45.630;8.886;2022-07-11T02:46:31;22.20;51.70
34406;DHT22;20658;45.630;8.886;2022-07-11T02:49:04;22.20;51.60
34406;DHT22;20658;45.630;8.886;2022-07-11T02:51:38;22.10;51.80
34406;DHT22;20658;45.630;8.886;2022-07-11T02:54:11;22.10;52.00
34406;DHT22;20658;45.630;8.886;2022-07-11T02:56:46;22.10;51.80
34406;DHT22;20658;45.630;8.886;2022-07-11T02:59:19;22.10;51.70
34406;DHT22;20658;45.630;8.886;2022-07-11T03:01:53;22.00;51.70
34406;DHT22;20658;45.630;8.886;2022-07-11T03:04:27;22.00;51.70
34406;DHT22;20658;45.630;8.886;2022-07-11T03:07:00;22.00;51.60
34406;DHT22;20658;45.630;8.886;2022-07-11T03:09:34;22.00;51.60
34406;DHT22;20658;45.630;8.886;2022-07-11T03:12:09;21.90;51.90
34406;DHT22;20658;45.630;8.886;2022-07-11T03:14:42;21.90;51.80
34406;DHT22;20658;45.630;8.886;2022-07-11T03:17:16;21.90;51.60
34406;DHT22;20658;45.630;8.886;2022-07-11T03:19:49;21.90;51.90
34406;DHT22;20658;45.630;8.886;2022-07-11T03:22:23;21.90;51.90
34406;DHT22;20658;45.630;8.886;2022-07-11T03:24:56;21.80;51.70
34406;DHT22;20658;45.630;8.886;2022-07-11T03:27:33;21.80;51.50
34406;DHT22;20658;45.630;8.886;2022-07-11T03:30:07;21.70;52.00
34406;DHT22;20658;45.630;8.886;2022-07-11T03:32:42;21.70;51.90
34406;DHT22;20658;45.630;8.886;2022-07-11T03:35:16;21.80;51.70
34406;DHT22;20658;45.630;8.886;2022-07-11T03:38:07;21.70;51.90
34406;DHT22;20658;45.630;8.886;2022-07-11T03:40:40;21.70;51.90
34406;DHT22;20658;45.630;8.886;2022-07-11T03:43:15;21.70;52.00
34406;DHT22;20658;45.630;8.886;2022-07-11T03:45:49;21.60;52.30
34406;DHT22;20658;45.630;8.886;2022-07-11T03:48:23;21.60;53.10
34406;DHT22;20658;45.630;8.886;2022-07-11T03:50:56;21.60;53.40
34406;DHT22;20658;45.630;8.886;2022-07-11T03:53:30;21.60;53.50
34406;DHT22;20658;45.630;8.886;2022-07-11T03:56:04;21.60;53.50
34406;DHT22;20658;45.630;8.886;2022-07-11T03:58:39;21.60;53.40
34406;DHT22;20658;45.630;8.886;2022-07-11T04:01:12;21.60;53.00
34406;DHT22;20658;45.630;8.886;2022-07-11T04:03:46;21.60;53.40
34406;DHT22;20658;45.630;8.886;2022-07-11T04:06:20;21.50;53.20
34406;DHT22;20658;45.630;8.886;2022-07-11T04:08:54;21.50;53.30
34406;DHT22;20658;45.630;8.886;2022-07-11T04:11:27;21.40;53.40
34406;DHT22;20658;45.630;8.886;2022-07-11T04:14:02;21.40;53.60
34406;DHT22;20658;45.630;8.886;2022-07-11T04:16:36;21.40;53.60
34406;DHT22;20658;45.630;8.886;2022-07-11T04:19:09;21.40;53.60
34406;DHT22;20658;45.630;8.886;2022-07-11T04:21:43;21.40;53.50
34406;DHT22;20658;45.630;8.886;2022-07-11T04:24:16;21.40;53.40
34406;DHT22;20658;45.630;8.886;2022-07-11T04:26:49;21.40;53.40
34406;DHT22;20658;45.630;8.886;2022-07-11T04:29:24;21.50;53.00
34406;DHT22;20658;45.630;8.886;2022-07-11T04:31:58;21.50;52.60
34406;DHT22;20658;45.630;8.886;2022-07-11T04:34:31;21.50;52.20
34406;DHT22;20658;45.630;8.886;2022-07-11T04:37:05;21.60;52.10
34406;DHT22;20658;45.630;8.886;2022-07-11T04:39:38;21.60;52.00
34406;DHT22;20658;45.630;8.886;2022-07-11T04:42:12;21.60;51.80
34406;DHT22;20658;45.630;8.886;2022-07-11T04:44:47;21.60;51.50
34406;DHT22;20658;45.630;8.886;2022-07-11T04:47:20;21.60;51.30
34406;DHT22;20658;45.630;8.886;2022-07-11T04:49:54;21.70;51.40
34406;DHT22;20658;45.630;8.886;2022-07-11T04:52:28;21.70;50.80
34406;DHT22;20658;45.630;8.886;2022-07-11T04:55:01;21.80;50.70
34406;DHT22;20658;45.630;8.886;2022-07-11T04:57:35;21.80;50.40
34406;DHT22;20658;45.630;8.886;2022-07-11T05:00:11;21.90;50.20
34406;DHT22;20658;45.630;8.886;2022-07-11T05:02:45;22.00;49.90
34406;DHT22;20658;45.630;8.886;2022-07-11T05:05:19;22.40;49.20
34406;DHT22;20658;45.630;8.886;2022-07-11T05:07:53;22.80;47.90
34406;DHT22;20658;45.630;8.886;2022-07-11T05:10:26;23.20;46.80
34406;DHT22;20658;45.630;8.886;2022-07-11T05:13:00;23.50;46.20
34406;DHT22;20658;45.630;8.886;2022-07-11T05:15:36;23.80;45.60
34406;DHT22;20658;45.630;8.886;2022-07-11T05:18:11;24.20;44.70
34406;DHT22;20658;45.630;8.886;2022-07-11T05:20:44;24.40;44.10
34406;DHT22;20658;45.630;8.886;2022-07-11T05:23:17;24.60;43.10
34406;DHT22;20658;45.630;8.886;2022-07-11T05:25:51;24.80;43.20
34406;DHT22;20658;45.630;8.886;2022-07-11T05:28:24;25.00;42.20
34406;DHT22;20658;45.630;8.886;2022-07-11T05:30:59;25.30;41.40
34406;DHT22;20658;45.630;8.886;2022-07-11T05:33:33;25.30;41.40
34406;DHT22;20658;45.630;8.886;2022-07-11T05:36:07;25.50;41.30
34406;DHT22;20658;45.630;8.886;2022-07-11T05:38:40;25.60;40.20
34406;DHT22;20658;45.630;8.886;2022-07-11T05:41:14;25.80;40.10
34406;DHT22;20658;45.630;8.886;2022-07-11T05:43:47;26.00;40.10
34406;DHT22;20658;45.630;8.886;2022-07-11T05:46:22;26.00;39.60
34406;DHT22;20658;45.630;8.886;2022-07-11T05:48:55;25.90;39.10
34406;DHT22;20658;45.630;8.886;2022-07-11T05:51:29;26.20;39.00
34406;DHT22;20658;45.630;8.886;2022-07-11T05:54:02;26.60;38.60
34406;DHT22;20658;45.630;8.886;2022-07-11T05:56:36;26.60;37.60
34406;DHT22;20658;45.630;8.886;2022-07-11T05:59:09;26.90;37.70
34406;DHT22;20658;45.630;8.886;2022-07-11T06:01:44;27.20;37.20
34406;DHT22;20658;45.630;8.886;2022-07-11T06:04:18;27.20;36.90
34406;DHT22;20658;45.630;8.886;2022-07-11T06:06:51;27.50;36.70
34406;DHT22;20658;45.630;8.886;2022-07-11T06:09:25;27.60;36.00
34406;DHT22;20658;45.630;8.886;2022-07-11T06:11:58;27.60;36.30
34406;DHT22;20658;45.630;8.886;2022-07-11T06:14:32;28.00;36.20
34406;DHT22;20658;45.630;8.886;2022-07-11T06:17:06;28.20;35.90
34406;DHT22;20658;45.630;8.886;2022-07-11T06:19:40;28.50;35.60
34406;DHT22;20658;45.630;8.886;2022-07-11T06:22:13;28.70;35.20
34406;DHT22;20658;45.630;8.886;2022-07-11T06:24:46;28.50;35.60
34406;DHT22;20658;45.630;8.886;2022-07-11T06:27:20;28.40;35.60
34406;DHT22;20658;45.630;8.886;2022-07-11T06:29:53;28.00;36.30
34406;DHT22;20658;45.630;8.886;2022-07-11T06:32:28;27.90;36.30
34406;DHT22;20658;45.630;8.886;2022-07-11T06:35:03;28.40;36.10
34406;DHT22;20658;45.630;8.886;2022-07-11T06:37:37;28.60;35.60
34406;DHT22;20658;45.630;8.886;2022-07-11T06:40:11;28.60;35.70
34406;DHT22;20658;45.630;8.886;2022-07-11T06:42:45;28.20;36.30
34406;DHT22;20658;45.630;8.886;2022-07-11T06:45:18;28.40;36.10
34406;DHT22;20658;45.630;8.886;2022-07-11T06:47:53;28.50;36.00
34406;DHT22;20658;45.630;8.886;2022-07-11T06:50:27;28.50;36.00
34406;DHT22;20658;45.630;8.886;2022-07-11T06:53:00;28.70;35.60
34406;DHT22;20658;45.630;8.886;2022-07-11T06:55:29;28.70;35.70
34406;DHT22;20658;45.630;8.886;2022-07-11T06:58:03;28.90;35.50
34406;DHT22;20658;45.630;8.886;2022-07-11T07:00:37;28.90;35.30
34406;DHT22;20658;45.630;8.886;2022-07-11T07:03:12;29.30;35.70
34406;DHT22;20658;45.630;8.886;2022-07-11T07:05:45;29.40;35.40
34406;DHT22;20658;45.630;8.886;2022-07-11T07:08:19;29.60;35.30
34406;DHT22;20658;45.630;8.886;2022-07-11T07:10:52;30.00;35.00
34406;DHT22;20658;45.630;8.886;2022-07-11T07:13:26;30.00;34.90
34406;DHT22;20658;45.630;8.886;2022-07-11T07:16:01;30.20;34.50
34406;DHT22;20658;45.630;8.886;2022-07-11T07:18:35;30.30;34.20
34406;DHT22;20658;45.630;8.886;2022-07-11T07:21:12;30.30;33.90
34406;DHT22;20658;45.630;8.886;2022-07-11T07:23:54;30.30;33.90
34406;DHT22;20658;45.630;8.886;2022-07-11T07:26:27;30.20;33.90
34406;DHT22;20658;45.630;8.886;2022-07-11T07:29:01;30.10;34.00
34406;DHT22;20658;45.630;8.886;2022-07-11T07:31:34;30.30;34.30
34406;DHT22;20658;45.630;8.886;2022-07-11T07:34:09;30.40;34.00
34406;DHT22;20658;45.630;8.886;2022-07-11T07:36:42;30.20;34.20
34406;DHT22;20658;45.630;8.886;2022-07-11T07:39:16;30.10;34.20
34406;DHT22;20658;45.630;8.886;2022-07-11T07:46:40;30.50;33.60
34406;DHT22;20658;45.630;8.886;2022-07-11T07:49:15;30.40;33.60
34406;DHT22;20658;45.630;8.886;2022-07-11T07:51:48;30.60;33.30
34406;DHT22;20658;45.630;8.886;2022-07-11T07:54:21;30.80;33.20
34406;DHT22;20658;45.630;8.886;2022-07-11T07:56:55;30.90;32.80
34406;DHT22;20658;45.630;8.886;2022-07-11T07:59:28;30.70;33.00
34406;DHT22;20658;45.630;8.886;2022-07-11T08:02:02;30.70;33.40
34406;DHT22;20658;45.630;8.886;2022-07-11T08:04:36;30.90;33.50
34406;DHT22;20658;45.630;8.886;2022-07-11T08:07:10;30.90;32.90
34406;DHT22;20658;45.630;8.886;2022-07-11T08:09:43;31.00;33.40
34406;DHT22;20658;45.630;8.886;2022-07-11T08:12:17;31.00;33.10
34406;DHT22;20658;45.630;8.886;2022-07-11T08:14:50;31.10;33.30
34406;DHT22;20658;45.630;8.886;2022-07-11T08:17:24;31.40;33.10
34406;DHT22;20658;45.630;8.886;2022-07-11T08:19:59;31.40;32.20
34406;DHT22;20658;45.630;8.886;2022-07-11T08:22:33;31.20;32.50
34406;DHT22;20658;45.630;8.886;2022-07-11T08:25:07;31.10;32.50
34406;DHT22;20658;45.630;8.886;2022-07-11T08:27:40;31.00;32.90
34406;DHT22;20658;45.630;8.886;2022-07-11T08:30:13;31.10;32.80
34406;DHT22;20658;45.630;8.886;2022-07-11T08:32:47;31.30;32.80
34406;DHT22;20658;45.630;8.886;2022-07-11T08:35:22;31.10;33.10
34406;DHT22;20658;45.630;8.886;2022-07-11T08:37:55;31.10;32.80
34406;DHT22;20658;45.630;8.886;2022-07-11T08:40:29;30.90;33.10
34406;DHT22;20658;45.630;8.886;2022-07-11T08:43:05;31.10;32.70
34406;DHT22;20658;45.630;8.886;2022-07-11T08:45:46;31.40;32.70
34406;DHT22;20658;45.630;8.886;2022-07-11T08:48:20;31.60;32.10
34406;DHT22;20658;45.630;8.886;2022-07-11T08:50:56;31.70;32.40
34406;DHT22;20658;45.630;8.886;2022-07-11T08:53:30;31.80;32.10
34406;DHT22;20658;45.630;8.886;2022-07-11T08:56:08;31.70;32.50
34406;DHT22;20658;45.630;8.886;2022-07-11T08:58:49;31.70;32.50
34406;DHT22;20658;45.630;8.886;2022-07-11T09:01:27;31.50;32.50
34406;DHT22;20658;45.630;8.886;2022-07-11T09:04:07;31.60;32.60
34406;DHT22;20658;45.630;8.886;2022-07-11T09:06:42;31.70;32.30
34406;DHT22;20658;45.630;8.886;2022-07-11T09:09:15;31.50;32.30
34406;DHT22;20658;45.630;8.886;2022-07-11T09:11:51;31.80;32.10
34406;DHT22;20658;45.630;8.886;2022-07-11T09:14:34;31.90;31.20
34406;DHT22;20658;45.630;8.886;2022-07-11T09:17:07;31.80;31.40
34406;DHT22;20658;45.630;8.886;2022-07-11T09:19:41;31.70;32.10
34406;DHT22;20658;45.630;8.886;2022-07-11T09:22:17;31.70;31.80
34406;DHT22;20658;45.630;8.886;2022-07-11T09:25:09;31.80;31.50
34406;DHT22;20658;45.630;8.886;2022-07-11T09:28:03;31.90;30.80
34406;DHT22;20658;45.630;8.886;2022-07-11T09:30:38;32.30;31.40
34406;DHT22;20658;45.630;8.886;2022-07-11T09:33:16;32.10;31.70
34406;DHT22;20658;45.630;8.886;2022-07-11T09:35:50;32.30;32.00
34406;DHT22;20658;45.630;8.886;2022-07-11T09:38:25;32.30;31.20
34406;DHT22;20658;45.630;8.886;2022-07-11T09:41:10;32.40;31.40
34406;DHT22;20658;45.630;8.886;2022-07-11T09:43:44;32.10;31.50
34406;DHT22;20658;45.630;8.886;2022-07-11T09:46:23;32.40;31.20
34406;DHT22;20658;45.630;8.886;2022-07-11T09:48:59;32.60;30.50
34406;DHT22;20658;45.630;8.886;2022-07-11T09:51:34;32.70;30.70
34406;DHT22;20658;45.630;8.886;2022-07-11T09:54:10;32.70;30.70
34406;DHT22;20658;45.630;8.886;2022-07-11T09:56:43;32.60;30.70
34406;DHT22;20658;45.630;8.886;2022-07-11T09:59:17;32.50;31.40
34406;DHT22;20658;45.630;8.886;2022-07-11T10:01:51;32.40;31.80
34406;DHT22;20658;45.630;8.886;2022-07-11T10:04:24;32.60;31.70
34406;DHT22;20658;45.630;8.886;2022-07-11T10:06:58;32.90;31.40
34406;DHT22;20658;45.630;8.886;2022-07-11T10:09:33;33.20;31.20
34406;DHT22;20658;45.630;8.886;2022-07-11T10:12:07;33.00;30.80
34406;DHT22;20658;45.630;8.886;2022-07-11T10:14:41;32.80;30.60
34406;DHT22;20658;45.630;8.886;2022-07-11T10:17:22;33.20;31.30
34406;DHT22;20658;45.630;8.886;2022-07-11T10:20:04;33.20;31.10
34406;DHT22;20658;45.630;8.886;2022-07-11T10:22:47;33.30;31.30
34406;DHT22;20658;45.630;8.886;2022-07-11T10:25:33;33.60;31.00
34406;DHT22;20658;45.630;8.886;2022-07-11T10:28:19;33.60;30.50
34406;DHT22;20658;45.630;8.886;2022-07-11T10:30:56;33.40;30.70
34406;DHT22;20658;45.630;8.886;2022-07-11T10:33:31;33.50;30.50
34406;DHT22;20658;45.630;8.886;2022-07-11T10:36:05;33.30;30.90
34406;DHT22;20658;45.630;8.886;2022-07-11T10:39:17;33.20;31.20
34406;DHT22;20658;45.630;8.886;2022-07-11T10:41:55;33.60;30.80
34406;DHT22;20658;45.630;8.886;2022-07-11T10:44:48;33.80;30.40
34406;DHT22;20658;45.630;8.886;2022-07-11T10:47:33;33.90;30.20
34406;DHT22;20658;45.630;8.886;2022-07-11T10:50:25;33.50;30.60
34406;DHT22;20658;45.630;8.886;2022-07-11T10:53:07;33.80;30.50
34406;DHT22;20658;45.630;8.886;2022-07-11T10:55:46;34.00;30.80
34406;DHT22;20658;45.630;8.886;2022-07-11T10:58:26;34.20;30.50
34406;DHT22;20658;45.630;8.886;2022-07-11T11:01:10;34.40;30.30
34406;DHT22;20658;45.630;8.886;2022-07-11T11:03:44;34.50;30.10
34406;DHT22;20658;45.630;8.886;2022-07-11T11:06:17;34.70;29.30
34406;DHT22;20658;45.630;8.886;2022-07-11T11:08:52;34.80;29.20
34406;DHT22;20658;45.630;8.886;2022-07-11T11:11:35;34.70;28.90
34406;DHT22;20658;45.630;8.886;2022-07-11T11:14:19;34.60;29.10
34406;DHT22;20658;45.630;8.886;2022-07-11T11:16:54;34.50;29.10
34406;DHT22;20658;45.630;8.886;2022-07-11T11:19:52;34.60;29.40
34406;DHT22;20658;45.630;8.886;2022-07-11T11:22:27;34.50;28.90
34406;DHT22;20658;45.630;8.886;2022-07-11T11:25:00;34.60;29.20
34406;DHT22;20658;45.630;8.886;2022-07-11T11:27:34;34.70;29.10
34406;DHT22;20658;45.630;8.886;2022-07-11T11:30:09;34.70;29.50
34406;DHT22;20658;45.630;8.886;2022-07-11T11:32:43;34.80;29.50
34406;DHT22;20658;45.630;8.886;2022-07-11T11:35:17;34.90;29.10
34406;DHT22;20658;45.630;8.886;2022-07-11T11:37:51;34.90;29.20
34406;DHT22;20658;45.630;8.886;2022-07-11T11:40:26;34.70;29.30
34406;DHT22;20658;45.630;8.886;2022-07-11T11:43:00;34.40;29.70
34406;DHT22;20658;45.630;8.886;2022-07-11T11:45:36;34.50;29.50
34406;DHT22;20658;45.630;8.886;2022-07-11T11:48:09;34.20;30.20
34406;DHT22;20658;45.630;8.886;2022-07-11T11:50:43;34.50;29.80
34406;DHT22;20658;45.630;8.886;2022-07-11T11:53:16;34.70;29.30
34406;DHT22;20658;45.630;8.886;2022-07-11T11:55:50;34.70;29.50
34406;DHT22;20658;45.630;8.886;2022-07-11T11:58:24;34.20;30.40
34406;DHT22;20658;45.630;8.886;2022-07-11T12:01:00;34.70;29.70
34406;DHT22;20658;45.630;8.886;2022-07-11T12:03:46;35.10;29.60
34406;DHT22;20658;45.630;8.886;2022-07-11T12:06:22;35.40;29.30
34406;DHT22;20658;45.630;8.886;2022-07-11T12:08:58;35.60;28.90
34406;DHT22;20658;45.630;8.886;2022-07-11T12:11:33;35.60;28.50
34406;DHT22;20658;45.630;8.886;2022-07-11T12:14:08;35.40;29.20
34406;DHT22;20658;45.630;8.886;2022-07-11T12:16:45;35.70;28.80
34406;DHT22;20658;45.630;8.886;2022-07-11T12:19:22;36.00;28.30
34406;DHT22;20658;45.630;8.886;2022-07-11T12:21:56;36.00;27.90
34406;DHT22;20658;45.630;8.886;2022-07-11T12:24:31;35.80;27.40
34406;DHT22;20658;45.630;8.886;2022-07-11T12:27:04;35.70;27.90
34406;DHT22;20658;45.630;8.886;2022-07-11T12:29:40;35.70;28.30
34406;DHT22;20658;45.630;8.886;2022-07-11T12:32:19;36.00;27.90
34406;DHT22;20658;45.630;8.886;2022-07-11T12:34:53;35.90;27.50
34406;DHT22;20658;45.630;8.886;2022-07-11T12:37:37;36.10;27.80
34406;DHT22;20658;45.630;8.886;2022-07-11T12:40:10;36.10;27.60
34406;DHT22;20658;45.630;8.886;2022-07-11T12:42:45;36.00;27.30
34406;DHT22;20658;45.630;8.886;2022-07-11T12:45:19;36.10;27.50
34406;DHT22;20658;45.630;8.886;2022-07-11T12:47:53;36.20;27.60
34406;DHT22;20658;45.630;8.886;2022-07-11T12:50:27;35.70;27.60
34406;DHT22;20658;45.630;8.886;2022-07-11T12:53:01;36.00;28.30
34406;DHT22;20658;45.630;8.886;2022-07-11T12:55:34;36.50;27.20
34406;DHT22;20658;45.630;8.886;2022-07-11T12:58:10;36.70;26.80
34406;DHT22;20658;45.630;8.886;2022-07-11T13:00:56;36.70;26.80
34406;DHT22;20658;45.630;8.886;2022-07-11T13:03:33;36.90;26.50
34406;DHT22;20658;45.630;8.886;2022-07-11T13:06:08;37.10;27.20
34406;DHT22;20658;45.630;8.886;2022-07-11T13:08:41;36.90;26.60
34406;DHT22;20658;45.630;8.886;2022-07-11T13:11:16;36.40;27.40
34406;DHT22;20658;45.630;8.886;2022-07-11T13:13:51;36.50;27.50
34406;DHT22;20658;45.630;8.886;2022-07-11T13:16:25;36.60;26.70
34406;DHT22;20658;45.630;8.886;2022-07-11T13:19:00;36.50;27.40
34406;DHT22;20658;45.630;8.886;2022-07-11T13:21:33;36.90;26.70
34406;DHT22;20658;45.630;8.886;2022-07-11T13:24:06;37.30;26.80
34406;DHT22;20658;45.630;8.886;2022-07-11T13:26:40;37.30;26.10
34406;DHT22;20658;45.630;8.886;2022-07-11T13:29:13;37.10;26.50
34406;DHT22;20658;45.630;8.886;2022-07-11T13:31:47;37.00;27.00
34406;DHT22;20658;45.630;8.886;2022-07-11T13:34:22;36.80;27.10
34406;DHT22;20658;45.630;8.886;2022-07-11T13:36:55;37.00;27.20
34406;DHT22;20658;45.630;8.886;2022-07-11T13:39:28;36.60;27.10
34406;DHT22;20658;45.630;8.886;2022-07-11T13:42:02;36.60;27.40
34406;DHT22;20658;45.630;8.886;2022-07-11T13:44:36;36.70;27.20
34406;DHT22;20658;45.630;8.886;2022-07-11T13:47:10;37.10;27.70
34406;DHT22;20658;45.630;8.886;2022-07-11T13:49:46;36.90;27.30
34406;DHT22;20658;45.630;8.886;2022-07-11T13:52:20;36.90;27.50
34406;DHT22;20658;45.630;8.886;2022-07-11T13:54:53;37.10;27.70
34406;DHT22;20658;45.630;8.886;2022-07-11T13:57:27;37.50;27.50
34406;DHT22;20658;45.630;8.886;2022-07-11T14:00:01;37.30;27.10
34406;DHT22;20658;45.630;8.886;2022-07-11T14:02:41;37.30;27.60
34406;DHT22;20658;45.630;8.886;2022-07-11T14:05:16;37.50;26.70
34406;DHT22;20658;45.630;8.886;2022-07-11T14:07:51;37.50;26.60
34406;DHT22;20658;45.630;8.886;2022-07-11T14:10:24;37.70;26.40
34406;DHT22;20658;45.630;8.886;2022-07-11T14:12:58;37.50;26.90
34406;DHT22;20658;45.630;8.886;2022-07-11T14:15:32;37.30;26.70
34406;DHT22;20658;45.630;8.886;2022-07-11T14:18:05;37.20;27.50
34406;DHT22;20658;45.630;8.886;2022-07-11T14:20:40;37.60;26.90
34406;DHT22;20658;45.630;8.886;2022-07-11T14:23:13;37.30;27.40
34406;DHT22;20658;45.630;8.886;2022-07-11T14:25:47;37.10;27.60
34406;DHT22;20658;45.630;8.886;2022-07-11T14:28:21;37.20;27.30
34406;DHT22;20658;45.630;8.886;2022-07-11T14:30:54;37.20;27.00
34406;DHT22;20658;45.630;8.886;2022-07-11T14:33:28;37.50;26.80
34406;DHT22;20658;45.630;8.886;2022-07-11T14:36:03;37.20;27.30
34406;DHT22;20658;45.630;8.886;2022-07-11T14:38:37;37.20;27.20
34406;DHT22;20658;45.630;8.886;2022-07-11T14:41:11;37.30;27.30
34406;DHT22;20658;45.630;8.886;2022-07-11T14:43:44;37.40;27.00
34406;DHT22;20658;45.630;8.886;2022-07-11T14:46:18;37.10;27.20
34406;DHT22;20658;45.630;8.886;2022-07-11T14:48:54;37.50;26.80
34406;DHT22;20658;45.630;8.886;2022-07-11T14:51:28;37.70;26.60
34406;DHT22;20658;45.630;8.886;2022-07-11T14:54:03;37.50;26.70
34406;DHT22;20658;45.630;8.886;2022-07-11T14:56:36;37.60;26.70
34406;DHT22;20658;45.630;8.886;2022-07-11T14:59:10;37.50;27.00
34406;DHT22;20658;45.630;8.886;2022-07-11T15:01:43;37.60;27.00
34406;DHT22;20658;45.630;8.886;2022-07-11T15:04:16;38.10;26.60
34406;DHT22;20658;45.630;8.886;2022-07-11T15:06:51;38.40;26.00
34406;DHT22;20658;45.630;8.886;2022-07-11T15:09:47;38.10;26.80
34406;DHT22;20658;45.630;8.886;2022-07-11T15:12:38;38.50;25.80
34406;DHT22;20658;45.630;8.886;2022-07-11T15:15:13;37.70;26.10
34406;DHT22;20658;45.630;8.886;2022-07-11T15:17:47;37.60;26.60
34406;DHT22;20658;45.630;8.886;2022-07-11T15:20:20;37.80;26.10
34406;DHT22;20658;45.630;8.886;2022-07-11T15:22:55;37.90;26.20
34406;DHT22;20658;45.630;8.886;2022-07-11T15:25:30;38.00;26.50
34406;DHT22;20658;45.630;8.886;2022-07-11T15:28:03;37.70;26.30
34406;DHT22;20658;45.630;8.886;2022-07-11T15:30:37;37.70;26.40
34406;DHT22;20658;45.630;8.886;2022-07-11T15:33:10;37.80;26.10
34406;DHT22;20658;45.630;8.886;2022-07-11T15:35:44;38.20;26.00
34406;DHT22;20658;45.630;8.886;2022-07-11T15:38:22;38.50;25.40
34406;DHT22;20658;45.630;8.886;2022-07-11T15:40:58;38.70;25.00
34406;DHT22;20658;45.630;8.886;2022-07-11T15:43:31;38.10;25.60
34406;DHT22;20658;45.630;8.886;2022-07-11T15:46:05;38.00;26.00
34406;DHT22;20658;45.630;8.886;2022-07-11T15:48:38;37.90;25.40
34406;DHT22;20658;45.630;8.886;2022-07-11T15:51:12;38.10;25.80
34406;DHT22;20658;45.630;8.886;2022-07-11T15:53:47;38.20;25.60
34406;DHT22;20658;45.630;8.886;2022-07-11T15:56:21;38.60;25.00
34406;DHT22;20658;45.630;8.886;2022-07-11T15:58:55;38.80;25.00
34406;DHT22;20658;45.630;8.886;2022-07-11T16:01:29;39.00;25.10
34406;DHT22;20658;45.630;8.886;2022-07-11T16:04:04;38.60;25.00
34406;DHT22;20658;45.630;8.886;2022-07-11T16:06:38;38.10;25.80
34406;DHT22;20658;45.630;8.886;2022-07-11T16:09:12;38.30;25.60
34406;DHT22;20658;45.630;8.886;2022-07-11T16:11:46;38.70;25.10
34406;DHT22;20658;45.630;8.886;2022-07-11T16:14:19;38.90;24.70
34406;DHT22;20658;45.630;8.886;2022-07-11T16:16:53;39.20;24.90
34406;DHT22;20658;45.630;8.886;2022-07-11T16:19:26;39.20;24.90
34406;DHT22;20658;45.630;8.886;2022-07-11T16:22:00;38.70;24.70
34406;DHT22;20658;45.630;8.886;2022-07-11T16:24:35;38.90;24.60